| time (UTC) | temp C | wind direction | speed KPH | gust KPH | rain 1hr cm | rain 24hr cm | rain mn cm | humidity % | barometer mb |
| 20260510141531 | 9 | 13 | 3.2 | 12.9 | 0.00 | 0.64 | 0.00 | 94 | 1014.9 |
| 20260510140020 | 8 | 350 | 0.0 | 6.4 | 0.00 | 0.64 | 0.00 | 95 | 1014.7 |
| 20260510134518 | 8 | 67 | 3.2 | 9.7 | 0.00 | 0.64 | 0.00 | 96 | 1014.6 |
| 20260510133023 | 8 | 252 | 0.0 | 6.4 | 0.00 | 0.64 | 0.00 | 96 | 1014.6 |
| 20260510131513 | 7 | 338 | 0.0 | 9.7 | 0.00 | 0.64 | 0.00 | 96 | 1014.2 |
| 20260510130011 | 8 | 348 | 0.0 | 4.8 | 0.00 | 0.64 | 0.00 | 96 | 1013.7 |
| 20260510124510 | 8 | 13 | 0.0 | 4.8 | 0.00 | 0.64 | 0.00 | 96 | 1013.7 |
| 20260510123009 | 8 | 4 | 0.0 | 0.0 | 0.00 | 0.64 | 0.00 | 96 | 1013.6 |
| 20260510121505 | 7 | 9 | 0.0 | 1.6 | 0.00 | 0.64 | 0.00 | 96 | 1013.1 |
| 20260510120009 | 7 | 346 | 0.0 | 3.2 | 0.00 | 0.64 | 0.00 | 96 | 1012.9 |
| 20260510114501 | 7 | 357 | 0.0 | 1.6 | 0.00 | 0.64 | 0.00 | 96 | 1012.2 |
| 20260510113114 | 7 | 28 | 0.0 | 1.6 | 0.00 | 0.64 | 0.00 | 96 | 1012.0 |
| 20260510111559 | 7 | 1 | 0.0 | 6.4 | 0.00 | 0.64 | 0.00 | 96 | 1011.5 |
| 20260510110053 | -17 | 0.0 | 0.0 | 0.00 | 0.64 | 0.00 | 1011.4 | ||
| 20260510104556 | -17 | 0.0 | 0.0 | 0.00 | 0.64 | 0.00 | 1010.9 | ||
| 20260510103048 | -17 | 0.0 | 0.0 | 0.00 | 0.64 | 0.00 | 1010.6 | ||
| 20260510101539 | -17 | 0.0 | 0.0 | 0.00 | 0.64 | 0.00 | 1010.6 | ||
| 20260510100034 | -17 | 0.0 | 0.0 | 0.00 | 0.64 | 0.00 | 1010.4 | ||
| 20260510094530 | -17 | 0.0 | 0.0 | 0.00 | 0.64 | 0.00 | 1010.2 | ||
| 20260510093026 | -17 | 0.0 | 0.0 | 0.00 | 0.64 | 0.00 | 1009.8 | ||
| 20260510091521 | -17 | 0.0 | 0.0 | 0.00 | 0.64 | 0.00 | 1009.4 | ||
| 20260510090018 | -17 | 0.0 | 0.0 | 0.00 | 0.64 | 0.00 | 1009.3 | ||
| 20260510084512 | -17 | 0.0 | 0.0 | 0.00 | 0.64 | 0.00 | 1009.0 | ||
| 20260510083008 | -17 | 0.0 | 0.0 | 0.00 | 0.64 | 0.00 | 1009.0 | ||
| 20260510081515 | 10 | 226 | 0.0 | 0.0 | 0.00 | 0.64 | 0.00 | 96 | 1008.7 |
| 20260510080002 | 10 | 31 | 0.0 | 1.6 | 0.00 | 0.64 | 0.00 | 96 | 1008.5 |
| 20260510074601 | 10 | 134 | 0.0 | 0.0 | 0.00 | 0.84 | 0.00 | 96 | 1008.2 |
| 20260510073105 | 10 | 134 | 0.0 | 0.0 | 0.00 | 0.84 | 0.00 | 96 | 1008.0 |
| 20260510071559 | 10 | 134 | 0.0 | 0.0 | 0.00 | 0.84 | 0.00 | 96 | 1008.0 |
| 20260510070056 | 10 | 134 | 0.0 | 1.6 | 0.00 | 0.84 | 0.00 | 96 | 1007.9 |
| 20260510064558 | 10 | 152 | 0.0 | 0.0 | 0.00 | 1.04 | 0.00 | 96 | 1007.7 |
| 20260510063050 | 11 | 152 | 0.0 | 0.0 | 0.00 | 1.04 | 0.00 | 96 | 1007.3 |
| 20260510061550 | 11 | 8 | 0.0 | 4.8 | 0.00 | 1.04 | 0.00 | 96 | 1007.3 |
| 20260510060050 | 11 | 302 | 0.0 | 0.0 | 0.00 | 1.04 | 0.00 | 96 | 1007.0 |
| 20260510054547 | 11 | 142 | 0.0 | 6.4 | 0.00 | 1.12 | 0.00 | 96 | 1007.0 |
| 20260510053103 | 11 | 158 | 0.0 | 8.0 | 0.00 | 1.12 | 0.00 | 96 | 1007.3 |
| 20260510051555 | 11 | 229 | 0.0 | 0.0 | 0.00 | 1.12 | 0.00 | 96 | 1006.9 |
| 20260510050043 | 11 | 74 | 0.0 | 0.0 | 0.00 | 1.12 | 0.00 | 96 | 1006.8 |
| 20260510044554 | 11 | 221 | 0.0 | 0.0 | 0.00 | 1.17 | 0.00 | 96 | 1006.9 |
| 20260510043050 | 12 | 210 | 0.0 | 0.0 | 0.03 | 1.17 | 0.00 | 95 | 1007.0 |
| 20260510041537 | 12 | 142 | 0.0 | 0.0 | 0.08 | 1.17 | 0.00 | 95 | 1007.1 |
| 20260510040041 | 12 | 136 | 0.0 | 0.0 | 0.10 | 1.17 | 0.00 | 95 | 1007.1 |
| 20260510034535 | 12 | 224 | 0.0 | 4.8 | 0.10 | 1.22 | 1.17 | 95 | 1006.5 |
| 20260510033049 | 12 | 79 | 0.0 | 0.0 | 0.08 | 1.19 | 1.14 | 95 | 1006.7 |
| 20260510031537 | 12 | 67 | 0.0 | 0.0 | 0.03 | 1.14 | 1.09 | 95 | 1006.9 |
| 20260510030042 | 12 | 228 | 0.0 | 0.0 | 0.00 | 1.12 | 1.07 | 95 | 1007.6 |
| 20260510024532 | 12 | 229 | 0.0 | 0.0 | 0.00 | 1.17 | 1.07 | 95 | 1006.6 |
| 20260510023031 | 12 | 215 | 0.0 | 0.0 | 0.00 | 1.17 | 1.07 | 94 | 1006.2 |
| 20260510021533 | 12 | 217 | 0.0 | 3.2 | 0.00 | 1.17 | 1.07 | 94 | 1006.3 |
| 20260510020032 | 12 | 241 | 0.0 | 0.0 | 0.00 | 1.17 | 1.07 | 94 | 1006.3 |
| 20260510014535 | 12 | 219 | 0.0 | 0.0 | 0.00 | 1.24 | 1.07 | 93 | 1006.1 |
| 20260510013029 | 12 | 205 | 0.0 | 0.0 | 0.08 | 1.24 | 1.07 | 93 | 1005.7 |
| 20260510011528 | 12 | 255 | 0.0 | 0.0 | 0.13 | 1.24 | 1.07 | 93 | 1005.8 |
| 20260510010029 | 12 | 225 | 0.0 | 0.0 | 0.33 | 1.24 | 1.07 | 92 | 1005.8 |
| 20260510004528 | 12 | 190 | 0.0 | 0.0 | 0.53 | 1.32 | 1.07 | 91 | 1005.6 |
| 20260510003029 | 12 | 255 | 1.6 | 4.8 | 0.46 | 1.24 | 0.99 | 90 | 1006.4 |
| 20260510001526 | 13 | 283 | 0.0 | 8.0 | 0.41 | 1.19 | 0.94 | 88 | 1006.1 |
| 20260510000026 | 15 | 250 | 3.2 | 11.3 | 0.18 | 0.97 | 0.71 | 78 | 1006.0 |
| 20260509234535 | 18 | 252 | 1.6 | 16.1 | 0.00 | 0.79 | 0.53 | 60 | 1004.0 |
| 20260509233024 | 19 | 224 | 6.4 | 19.3 | 0.00 | 0.79 | 0.53 | 58 | 1003.5 |
| 20260509231523 | 19 | 197 | 3.2 | 25.7 | 0.00 | 0.79 | 0.53 | 58 | 1003.6 |
| 20260509230023 | 20 | 121 | 3.2 | 29.0 | 0.00 | 0.79 | 0.53 | 57 | 1003.4 |
| 20260509224521 | 20 | 255 | 12.9 | 32.2 | 0.00 | 0.79 | 0.53 | 55 | 1003.2 |
| 20260509223022 | 20 | 308 | 4.8 | 32.2 | 0.00 | 0.79 | 0.53 | 55 | 1003.3 |
| 20260509221519 | 20 | 255 | 6.4 | 27.4 | 0.00 | 0.79 | 0.53 | 54 | 1003.5 |
| 20260509220018 | 20 | 148 | 4.8 | 22.5 | 0.00 | 0.79 | 0.53 | 55 | 1003.6 |
| 20260509214517 | 20 | 163 | 11.3 | 29.0 | 0.00 | 0.79 | 0.53 | 55 | 1003.3 |
| 20260509213016 | 20 | 158 | 3.2 | 20.9 | 0.00 | 0.79 | 0.53 | 56 | 1003.5 |
| 20260509211513 | 20 | 207 | 11.3 | 22.5 | 0.00 | 0.79 | 0.53 | 55 | 1003.8 |
| 20260509210017 | 20 | 218 | 6.4 | 22.5 | 0.00 | 0.79 | 0.53 | 55 | 1004.0 |
| 20260509204510 | 20 | 162 | 6.4 | 22.5 | 0.00 | 0.84 | 0.53 | 55 | 1004.0 |
| 20260509203011 | 20 | 198 | 8.0 | 22.5 | 0.00 | 0.84 | 0.53 | 57 | 1004.3 |
| 20260509201507 | 20 | 210 | 6.4 | 29.0 | 0.00 | 0.84 | 0.53 | 56 | 1004.5 |
| 20260509200005 | 20 | 291 | 4.8 | 25.7 | 0.00 | 0.84 | 0.53 | 58 | 1004.7 |
| 20260509194503 | 20 | 162 | 6.4 | 22.5 | 0.00 | 0.84 | 0.53 | 59 | 1005.0 |
| 20260509193001 | 20 | 207 | 4.8 | 25.7 | 0.00 | 0.84 | 0.53 | 61 | 1005.3 |
| 20260509191600 | 20 | 273 | 9.7 | 25.7 | 0.00 | 0.84 | 0.53 | 60 | 1005.3 |
| 20260509190105 | 20 | 236 | 6.4 | 19.3 | 0.00 | 0.84 | 0.53 | 59 | 1005.6 |
| 20260509184607 | 20 | 193 | 9.7 | 22.5 | 0.00 | 0.86 | 0.53 | 60 | 1005.7 |
| 20260509183055 | 18 | 232 | 4.8 | 27.4 | 0.00 | 0.86 | 0.53 | 64 | 1005.6 |
| 20260509181554 | 18 | 217 | 9.7 | 27.4 | 0.00 | 0.86 | 0.53 | 62 | 1005.7 |
| 20260509180051 | 18 | 214 | 1.6 | 20.9 | 0.00 | 0.86 | 0.53 | 65 | 1005.8 |
| 20260509174548 | 18 | 204 | 4.8 | 24.1 | 0.00 | 0.86 | 0.53 | 66 | 1005.9 |
| 20260509173054 | 17 | 294 | 0.0 | 20.9 | 0.00 | 0.86 | 0.53 | 68 | 1005.7 |
| 20260509171550 | 17 | 232 | 1.6 | 27.4 | 0.00 | 0.86 | 0.53 | 71 | 1005.9 |
| 20260509170042 | 17 | 239 | 3.2 | 16.1 | 0.00 | 0.86 | 0.53 | 70 | 1006.2 |
| 20260509164541 | 17 | 250 | 1.6 | 14.5 | 0.00 | 0.86 | 0.53 | 70 | 1006.1 |
| 20260509163037 | 16 | 212 | 9.7 | 19.3 | 0.00 | 0.86 | 0.53 | 74 | 1006.2 |
| 20260509161536 | 16 | 283 | 3.2 | 19.3 | 0.00 | 0.86 | 0.53 | 79 | 1006.3 |
| 20260509160031 | 15 | 198 | 4.8 | 16.1 | 0.00 | 0.86 | 0.53 | 82 | 1006.4 |
| 20260509154529 | 15 | 105 | 6.4 | 19.3 | 0.00 | 0.86 | 0.53 | 85 | 1006.4 |
| 20260509153024 | 14 | 228 | 8.0 | 20.9 | 0.00 | 0.86 | 0.53 | 86 | 1006.2 |
| 20260509151521 | 13 | 211 | 6.4 | 12.9 | 0.00 | 0.86 | 0.53 | 89 | 1006.2 |
| 20260509150028 | 12 | 200 | 1.6 | 9.7 | 0.00 | 0.86 | 0.53 | 91 | 1006.0 |
| 20260509144518 | 12 | 252 | 4.8 | 16.1 | 0.00 | 0.86 | 0.53 | 92 | 1006.1 |
| 20260509143019 | 12 | 263 | 1.6 | 14.5 | 0.00 | 0.86 | 0.53 | 94 | 1006.2 |